Riviere-Saint-Jean, Canada
Current Conditions -  °F | °C
As of 7:44 AM on Monday 20 Oct 2014 (Local Time) from CYGV Reporting Station
Overcast Overcast  
Wind Chill:   Ceiling: 700
Heat Index:   Visibility: 7mi
Dew Point:   Wind: 3mph
Humidity: 100%   Direction: 360°N
Pressure: 29.41"   Gusts: NA
Location:  50.28°N, 64.33°W
Report Text: CYGV 201144Z AUTO 36003KT 7SM BKN007 OVC016 04/04 A2941 RMK SLP961
Loading
Personal Weather Stations






























Interactive Weather Map
Tropical Storm Tracking
New forecast layout! Learn more

10-Day Weather Forecast

Advertisements
Track Severe Weather on mobile